Dover, Canada
Current Conditions -  °F | °C
As of 5:00 AM on Wednesday 26 Nov 2014 (Local Time) from CYQX Reporting Station
Scattered Clouds Scattered Clouds  
Wind Chill: 33°   Ceiling: Unl
Heat Index: 41°   Visibility: 20mi
Dew Point: 32°   Wind: 14mph
Humidity: 70%   Direction: 270°W
Pressure: 29.66"   Gusts: 25mph
Location:  48.85°N, 53.98°W
Report Text: CYQX 260800Z 27012G22KT 20SM FEW120 SCT260 05/00 A2966 RMK AC1CI3 SLP047
Loading
Personal Weather Stations






























Interactive Weather Map New forecast layout! Learn more

10-Day Weather Forecast

Advertisements
Track Severe Weather on mobile